Terminal Aerodrome Forecast
Issued by NWS

Current Version | Previous Version | Text Only | Print | Product List | Glossary Off
Versions: 1 2 3 4 5 6 7 8 9 10 11 12 13 14 15 16 17

200
FTUS41 KPBZ 230522
TAFHLG
TAF
KHLG 230522Z 2306/2406 21010KT P6SM OVC050
     FM230700 19008KT P6SM VCSH OVC025
     FM230800 19006KT 3SM -SHRA OVC015
     FM231200 21008KT 5SM -SHRA BR OVC010
     FM231700 23012G20KT 5SM SHRA VCTS OVC025CB
     FM240000 23008KT 3SM SHRA BR OVC008
     FM240400 26004KT P6SM VCSH OVC006=

USA.gov is the U.S. government's official web portal to all federal, state and local government web resources and services.